CBR weather

Canberra International Airport
Canberra, Australian Capital Territory, Australia

Public forecast

Using degrees Celsius for public forecast. Weather courtesy of forecast.io.

METAR (pilot weather report)

Retrieved 2017/07/29 11:00 UTC (7 minutes ago):

YSCB 291100Z AUTO 16004KT 9999 // NCD 02/M00 Q1016

TAF (pilot weather forecast)

Retrieved 2017/07/29 06:00 UTC (5 hours ago):

TAF YSCB 290451Z 2906/3006 33010KT CAVOK FM291200 31008KT CAVOK FM300100 30015G25KT CAVOK